createdAt,value
2019-05-25T00:00:47.951Z,0.00
2019-05-25T00:01:47.940Z,0.00
2019-05-25T00:02:48.040Z,0.00
2019-05-25T00:03:47.933Z,0.00
2019-05-25T00:04:47.931Z,0.00
2019-05-25T00:05:47.892Z,0.00
2019-05-25T00:06:47.882Z,0.00
2019-05-25T00:07:47.864Z,0.00
2019-05-25T00:08:47.864Z,0.00
2019-05-25T00:09:48.664Z,0.00
2019-05-25T00:10:48.682Z,0.00
2019-05-25T00:11:47.856Z,0.00
2019-05-25T00:12:47.854Z,0.00
2019-05-25T00:13:47.864Z,0.00
2019-05-25T00:14:47.857Z,0.00
2019-05-25T00:15:47.826Z,0.00
2019-05-25T00:16:47.801Z,0.00
2019-05-25T00:17:47.838Z,0.00
2019-05-25T00:18:47.747Z,0.00
2019-05-25T00:19:47.734Z,0.00
2019-05-25T00:20:47.725Z,0.00
2019-05-25T00:21:47.821Z,0.00
2019-05-25T00:22:47.728Z,0.00
2019-05-25T00:23:47.703Z,0.00
2019-05-25T00:24:47.694Z,0.00
2019-05-25T00:25:47.663Z,0.00
2019-05-25T00:26:47.686Z,0.00
2019-05-25T00:27:47.655Z,0.00
2019-05-25T00:28:47.646Z,0.00
2019-05-25T00:29:47.635Z,0.00
2019-05-25T00:30:47.625Z,0.00
2019-05-25T00:31:47.627Z,0.00
2019-05-25T00:32:47.628Z,0.00
2019-05-25T00:33:47.632Z,0.00
2019-05-25T00:34:47.574Z,0.00
2019-05-25T00:35:47.559Z,0.00
2019-05-25T00:36:47.609Z,0.00
2019-05-25T00:37:47.542Z,0.00
2019-05-25T00:38:47.534Z,0.00
2019-05-25T00:39:47.505Z,0.00
2019-05-25T00:40:47.510Z,0.00
2019-05-25T00:41:47.524Z,0.00
2019-05-25T00:42:47.486Z,0.00
2019-05-25T00:43:47.589Z,0.00
2019-05-25T00:44:47.468Z,0.00
2019-05-25T00:45:47.447Z,0.00
2019-05-25T00:46:47.448Z,0.00
2019-05-25T00:47:47.442Z,0.00
2019-05-25T00:48:47.448Z,0.00
2019-05-25T00:49:47.426Z,0.00
2019-05-25T00:50:47.397Z,0.00
2019-05-25T00:51:48.174Z,0.00
2019-05-25T00:52:47.386Z,0.00
2019-05-25T00:53:47.436Z,0.00
2019-05-25T00:54:47.376Z,0.00
2019-05-25T00:55:47.370Z,0.00
2019-05-25T00:56:47.344Z,0.00
2019-05-25T00:57:47.317Z,0.00
2019-05-25T00:58:47.333Z,0.00
2019-05-25T00:59:47.307Z,0.00
2019-05-25T01:00:47.291Z,0.00
2019-05-25T01:01:47.276Z,0.00
2019-05-25T01:02:47.299Z,0.00
2019-05-25T01:03:47.278Z,0.00
2019-05-25T01:04:47.250Z,0.00
2019-05-25T01:05:47.228Z,0.00
2019-05-25T01:06:47.217Z,0.00
2019-05-25T01:07:47.215Z,0.00
2019-05-25T01:08:47.235Z,0.00
2019-05-25T01:09:47.188Z,0.00
2019-05-25T01:10:47.185Z,0.00
2019-05-25T01:11:47.167Z,0.00
2019-05-25T01:12:47.160Z,0.00
2019-05-25T01:13:47.171Z,0.00
2019-05-25T01:14:47.141Z,0.00
2019-05-25T01:15:47.118Z,0.00
2019-05-25T01:16:47.129Z,0.00
2019-05-25T01:17:47.099Z,0.00
2019-05-25T01:18:47.580Z,0.00
2019-05-25T01:19:47.110Z,0.00
2019-05-25T01:20:47.069Z,0.00
2019-05-25T01:21:47.108Z,0.00
2019-05-25T01:22:47.059Z,0.00
2019-05-25T01:23:47.059Z,0.00
2019-05-25T01:24:47.048Z,0.00
2019-05-25T01:25:47.009Z,0.00
2019-05-25T01:26:47.054Z,0.00
2019-05-25T01:27:46.989Z,0.00
2019-05-25T01:28:47.019Z,0.00
2019-05-25T01:29:46.971Z,0.00
2019-05-25T01:30:46.961Z,0.00
2019-05-25T01:31:46.999Z,0.00
2019-05-25T01:32:46.931Z,0.00
2019-05-25T01:33:46.929Z,0.00
2019-05-25T01:34:47.470Z,0.00
2019-05-25T01:35:46.906Z,0.00
2019-05-25T01:36:46.947Z,0.00
2019-05-25T01:37:48.632Z,0.00
2019-05-25T01:38:46.912Z,0.00
2019-05-25T01:39:46.850Z,0.00
2019-05-25T01:40:46.849Z,0.00
2019-05-25T01:41:46.865Z,0.00
2019-05-25T01:42:46.823Z,0.00
2019-05-25T01:43:46.811Z,0.00
2019-05-25T01:44:46.845Z,0.00
2019-05-25T01:45:46.790Z,0.00
2019-05-25T01:46:46.810Z,0.00
2019-05-25T01:47:46.771Z,0.00
2019-05-25T01:48:46.762Z,0.00
2019-05-25T01:49:46.743Z,0.00
2019-05-25T01:50:46.734Z,0.00
2019-05-25T01:51:46.779Z,0.00
2019-05-25T01:52:46.722Z,0.00
2019-05-25T01:53:46.703Z,0.00
2019-05-25T01:54:58.832Z,0.00
2019-05-25T01:55:47.674Z,0.00
2019-05-25T01:56:46.691Z,0.00
2019-05-25T01:57:46.682Z,0.00
2019-05-25T01:58:46.644Z,0.00
2019-05-25T01:59:46.644Z,0.00
2019-05-25T02:00:46.626Z,0.00
2019-05-25T02:01:46.612Z,0.00
2019-05-25T02:02:46.623Z,0.00
2019-05-25T02:03:46.593Z,0.00
2019-05-25T02:04:46.610Z,0.00
2019-05-25T02:05:46.573Z,0.00
2019-05-25T02:06:46.566Z,0.00
2019-05-25T02:07:46.551Z,0.00
2019-05-25T02:08:46.530Z,0.00
2019-05-25T02:09:46.551Z,0.00
2019-05-25T02:10:46.513Z,0.00
2019-05-25T02:11:46.504Z,0.00
2019-05-25T02:12:46.492Z,0.00
2019-05-25T02:13:46.482Z,0.00
2019-05-25T02:14:46.493Z,0.00
2019-05-25T02:15:46.459Z,0.00
2019-05-25T02:16:46.453Z,0.00
2019-05-25T02:17:46.461Z,0.00
2019-05-25T02:18:46.439Z,0.00
2019-05-25T02:19:46.415Z,0.00
2019-05-25T02:20:46.420Z,0.00
2019-05-25T02:21:46.393Z,0.00
2019-05-25T02:22:46.405Z,0.00
2019-05-25T02:23:46.381Z,0.00
2019-05-25T02:24:46.363Z,0.00
2019-05-25T02:25:46.392Z,0.00
2019-05-25T02:26:46.391Z,0.00
2019-05-25T02:27:46.402Z,0.00
2019-05-25T02:28:46.322Z,0.00
2019-05-25T02:29:46.316Z,0.00
2019-05-25T02:30:46.314Z,0.00
2019-05-25T02:31:46.286Z,0.00
2019-05-25T02:32:46.303Z,0.00
2019-05-25T02:33:46.303Z,0.00
2019-05-25T02:34:46.257Z,0.00
2019-05-25T02:35:46.237Z,0.00
2019-05-25T02:36:46.874Z,0.00
2019-05-25T02:37:46.322Z,0.00
2019-05-25T02:38:46.868Z,0.00
2019-05-25T02:39:46.214Z,0.00
2019-05-25T02:40:46.237Z,0.00
2019-05-25T02:41:46.173Z,0.00
2019-05-25T02:42:46.206Z,0.00
2019-05-25T02:43:46.179Z,0.00
2019-05-25T02:44:46.162Z,0.00
2019-05-25T02:45:46.131Z,0.00
2019-05-25T02:46:46.199Z,0.00
2019-05-25T02:47:46.166Z,0.00
2019-05-25T02:48:46.151Z,0.00
2019-05-25T02:49:46.146Z,0.00
2019-05-25T02:50:46.151Z,0.00
2019-05-25T02:51:46.057Z,0.00
2019-05-25T02:52:46.092Z,0.00
2019-05-25T02:53:46.071Z,0.00
2019-05-25T02:54:46.038Z,0.00
2019-05-25T02:55:46.020Z,0.00
2019-05-25T02:56:46.019Z,0.00
2019-05-25T02:57:45.998Z,0.00
2019-05-25T02:58:46.005Z,0.00
2019-05-25T02:59:45.978Z,0.00
2019-05-25T03:00:45.995Z,0.00
2019-05-25T03:01:45.957Z,0.00
2019-05-25T03:02:47.044Z,0.00
2019-05-25T03:03:46.695Z,4.00
2019-05-25T03:04:45.957Z,4.00
2019-05-25T03:05:46.009Z,4.00
2019-05-25T03:06:45.912Z,0.00
2019-05-25T03:07:45.894Z,4.00
2019-05-25T03:08:45.875Z,4.00
2019-05-25T03:09:45.881Z,0.00
2019-05-25T03:10:45.911Z,4.00
2019-05-25T03:11:45.851Z,4.00
2019-05-25T03:12:45.858Z,4.00
2019-05-25T03:13:45.838Z,8.00
2019-05-25T03:14:45.808Z,8.00
2019-05-25T03:15:45.856Z,8.00
2019-05-25T03:16:45.814Z,12.00
2019-05-25T03:17:45.816Z,12.00
2019-05-25T03:18:45.794Z,12.00
2019-05-25T03:19:45.766Z,12.00
2019-05-25T03:20:45.784Z,12.00
2019-05-25T03:21:45.736Z,12.00
2019-05-25T03:22:45.785Z,16.00
2019-05-25T03:23:45.711Z,16.00
2019-05-25T03:24:45.708Z,20.00
2019-05-25T03:25:49.483Z,24.00
2019-05-25T03:26:45.708Z,24.00
2019-05-25T03:27:45.762Z,28.00
2019-05-25T03:28:45.657Z,32.00
2019-05-25T03:29:45.718Z,32.00
2019-05-25T03:30:45.637Z,36.00
2019-05-25T03:31:45.636Z,36.00
2019-05-25T03:32:45.628Z,40.00
2019-05-25T03:33:45.625Z,44.00
2019-05-25T03:34:45.659Z,44.00
2019-05-25T03:35:45.585Z,48.00
2019-05-25T03:36:45.576Z,52.00
2019-05-25T03:37:45.633Z,56.00
2019-05-25T03:38:45.546Z,60.00
2019-05-25T03:39:45.560Z,64.00
2019-05-25T03:40:45.558Z,68.00
2019-05-25T03:41:45.523Z,76.00
2019-05-25T03:42:45.537Z,76.00
2019-05-25T03:43:45.502Z,80.00
2019-05-25T03:44:45.488Z,88.00
2019-05-25T03:45:46.379Z,92.00
2019-05-25T03:46:45.486Z,92.00
2019-05-25T03:47:45.533Z,96.00
2019-05-25T03:48:45.442Z,96.00
2019-05-25T03:49:45.426Z,100.00
2019-05-25T03:50:45.438Z,104.00
2019-05-25T03:51:45.408Z,108.00
2019-05-25T03:52:45.389Z,108.00
2019-05-25T03:53:45.388Z,112.00
2019-05-25T03:54:45.411Z,116.00
2019-05-25T03:55:45.402Z,120.00
2019-05-25T03:56:45.348Z,124.00
2019-05-25T03:57:45.340Z,124.00
2019-05-25T03:58:45.351Z,132.00
2019-05-25T03:59:45.321Z,136.00
2019-05-25T04:00:45.341Z,140.00
2019-05-25T04:01:45.300Z,144.00
2019-05-25T04:02:45.311Z,148.00
2019-05-25T04:03:45.278Z,152.00
2019-05-25T04:04:45.332Z,160.00
2019-05-25T04:05:45.272Z,164.00
2019-05-25T04:06:45.351Z,168.00
2019-05-25T04:07:45.235Z,184.00
2019-05-25T04:08:45.221Z,192.00
2019-05-25T04:09:45.270Z,208.00
2019-05-25T04:10:45.210Z,224.00
2019-05-25T04:11:45.259Z,240.00
2019-05-25T04:12:45.210Z,264.00
2019-05-25T04:13:45.201Z,280.00
2019-05-25T04:14:45.237Z,292.00
2019-05-25T04:15:45.185Z,308.00
2019-05-25T04:16:45.261Z,328.00
2019-05-25T04:17:45.182Z,348.00
2019-05-25T04:18:45.140Z,364.00
2019-05-25T04:19:45.091Z,384.00
2019-05-25T04:20:45.086Z,404.00
2019-05-25T04:21:45.102Z,416.00
2019-05-25T04:22:45.061Z,424.00
2019-05-25T04:23:45.052Z,436.00
2019-05-25T04:24:45.072Z,444.00
2019-05-25T04:25:45.041Z,456.00
2019-05-25T04:26:45.057Z,464.00
2019-05-25T04:27:45.013Z,472.00
2019-05-25T04:28:44.995Z,484.00
2019-05-25T04:29:44.985Z,492.00
2019-05-25T04:30:44.971Z,504.00
2019-05-25T04:31:45.013Z,512.00
2019-05-25T04:32:44.958Z,520.00
2019-05-25T04:33:44.943Z,528.00
2019-05-25T04:34:44.931Z,536.00
2019-05-25T04:35:44.953Z,544.00
2019-05-25T04:36:44.911Z,548.00
2019-05-25T04:37:44.895Z,556.00
2019-05-25T04:38:44.911Z,564.00
2019-05-25T04:39:44.903Z,572.00
2019-05-25T04:40:44.897Z,584.00
2019-05-25T04:41:44.852Z,592.00
2019-05-25T04:42:44.852Z,600.00
2019-05-25T04:43:44.850Z,608.00
2019-05-25T04:44:44.841Z,620.00
2019-05-25T04:45:44.833Z,624.00
2019-05-25T04:46:44.802Z,632.00
2019-05-25T04:47:44.785Z,640.00
2019-05-25T04:48:44.782Z,648.00
2019-05-25T04:49:44.795Z,660.00
2019-05-25T04:50:44.763Z,672.00
2019-05-25T04:51:44.753Z,676.00
2019-05-25T04:52:44.765Z,684.00
2019-05-25T04:53:44.720Z,696.00
2019-05-25T04:54:44.750Z,708.00
2019-05-25T04:55:44.704Z,716.00
2019-05-25T04:56:44.696Z,740.00
2019-05-25T04:57:44.675Z,768.00
2019-05-25T04:58:44.666Z,772.00
2019-05-25T04:59:44.680Z,780.00
2019-05-25T05:00:44.645Z,792.00
2019-05-25T05:01:44.638Z,800.00
2019-05-25T05:02:44.624Z,808.00
2019-05-25T05:03:44.646Z,816.00
2019-05-25T05:04:44.601Z,848.00
2019-05-25T05:05:44.583Z,872.00
2019-05-25T05:06:44.609Z,896.00
2019-05-25T05:07:44.586Z,920.00
2019-05-25T05:08:44.595Z,940.00
2019-05-25T05:09:44.542Z,952.00
2019-05-25T05:10:44.614Z,964.00
2019-05-25T05:11:44.523Z,972.00
2019-05-25T05:12:44.520Z,984.00
2019-05-25T05:13:44.526Z,992.00
2019-05-25T05:14:44.494Z,1004.00
2019-05-25T05:15:44.504Z,1012.00
2019-05-25T05:16:44.464Z,1024.00
2019-05-25T05:17:44.453Z,1036.00
2019-05-25T05:18:44.445Z,1048.00
2019-05-25T05:19:44.447Z,1064.00
2019-05-25T05:20:44.472Z,1080.00
2019-05-25T05:21:44.413Z,1096.00
2019-05-25T05:22:44.405Z,1116.00
2019-05-25T05:23:44.405Z,1124.00
2019-05-25T05:24:44.382Z,1140.00
2019-05-25T05:25:44.397Z,1140.00
2019-05-25T05:26:55.425Z,1172.00
2019-05-25T05:27:45.348Z,1184.00
2019-05-25T05:28:44.379Z,1204.00
2019-05-25T05:29:44.329Z,1212.00
2019-05-25T05:30:44.408Z,1232.00
2019-05-25T05:31:44.303Z,1244.00
2019-05-25T05:32:44.293Z,1256.00
2019-05-25T05:33:44.363Z,1284.00
2019-05-25T05:34:44.264Z,1308.00
2019-05-25T05:35:44.294Z,1344.00
2019-05-25T05:36:44.274Z,1380.00
2019-05-25T05:37:44.236Z,1408.00
2019-05-25T05:38:44.232Z,1416.00
2019-05-25T05:39:44.215Z,1440.00
2019-05-25T05:40:44.252Z,1464.00
2019-05-25T05:41:44.201Z,1496.00
2019-05-25T05:42:44.182Z,1536.00
2019-05-25T05:43:44.166Z,1584.00
2019-05-25T05:44:44.178Z,1644.00
2019-05-25T05:45:44.421Z,1720.00
2019-05-25T05:46:44.135Z,1848.00
2019-05-25T05:47:44.136Z,2040.00
2019-05-25T05:48:44.663Z,2276.00
2019-05-25T05:49:44.148Z,2584.00
2019-05-25T05:50:44.118Z,3280.00
2019-05-25T05:51:44.095Z,4012.00
2019-05-25T05:52:44.096Z,5412.00
2019-05-25T05:53:44.068Z,6916.00
2019-05-25T05:54:44.048Z,7980.00
2019-05-25T05:55:44.036Z,8588.00
2019-05-25T05:56:44.027Z,8652.00
2019-05-25T05:57:44.045Z,8552.00
2019-05-25T05:58:44.009Z,9740.00
2019-05-25T05:59:44.005Z,9992.00
2019-05-25T06:00:43.977Z,9580.00
2019-05-25T06:01:43.976Z,9028.00
2019-05-25T06:02:43.989Z,8476.00
2019-05-25T06:03:43.946Z,8088.00
2019-05-25T06:04:43.939Z,6424.00
2019-05-25T06:05:43.929Z,7956.00
2019-05-25T06:06:43.928Z,8012.00
2019-05-25T06:07:43.944Z,8012.00
2019-05-25T06:08:43.895Z,8040.00
2019-05-25T06:09:43.893Z,8136.00
2019-05-25T06:10:43.885Z,8160.00
2019-05-25T06:11:43.879Z,8276.00
2019-05-25T06:12:43.888Z,8336.00
2019-05-25T06:13:43.905Z,8336.00
2019-05-25T06:14:43.837Z,8060.00
2019-05-25T06:15:43.819Z,7580.00
2019-05-25T06:16:43.840Z,8288.00
2019-05-25T06:17:43.799Z,7436.00
2019-05-25T06:18:43.841Z,7036.00
2019-05-25T06:19:43.774Z,7768.00
2019-05-25T06:20:43.791Z,8500.00
2019-05-25T06:21:43.820Z,8276.00
2019-05-25T06:22:43.790Z,8184.00
2019-05-25T06:23:43.729Z,8064.00
2019-05-25T06:24:43.804Z,7892.00
2019-05-25T06:25:43.710Z,7316.00
2019-05-25T06:26:43.697Z,7512.00
2019-05-25T06:27:44.431Z,7388.00
2019-05-25T06:28:43.680Z,8204.00
2019-05-25T06:29:43.669Z,8544.00
2019-05-25T06:30:43.680Z,7804.00
2019-05-25T06:31:43.640Z,8828.00
2019-05-25T06:32:43.640Z,9040.00
2019-05-25T06:33:43.628Z,9232.00
2019-05-25T06:34:43.660Z,9292.00
2019-05-25T06:35:43.602Z,9020.00
2019-05-25T06:36:43.593Z,8800.00
2019-05-25T06:37:43.590Z,9048.00
2019-05-25T06:38:43.574Z,9344.00
2019-05-25T06:39:43.583Z,9336.00
2019-05-25T06:40:43.544Z,8916.00
2019-05-25T06:41:43.560Z,8468.00
2019-05-25T06:42:43.523Z,8484.00
2019-05-25T06:43:43.512Z,9096.00
2019-05-25T06:44:43.536Z,8780.00
2019-05-25T06:45:43.494Z,7496.00
2019-05-25T06:46:43.514Z,6924.00
2019-05-25T06:47:43.475Z,7432.00
2019-05-25T06:48:43.455Z,7292.00
2019-05-25T06:49:43.446Z,7252.00
2019-05-25T06:50:43.441Z,6544.00
2019-05-25T06:51:43.444Z,6344.00
2019-05-25T06:52:43.441Z,6144.00
2019-05-25T06:53:43.404Z,6576.00
2019-05-25T06:54:43.452Z,5628.00
2019-05-25T06:55:43.408Z,7744.00
2019-05-25T06:56:43.418Z,8832.00
2019-05-25T06:57:44.044Z,8660.00
2019-05-25T06:58:43.375Z,7088.00
2019-05-25T06:59:43.343Z,6388.00
2019-05-25T07:00:43.340Z,6700.00
2019-05-25T07:01:43.377Z,5872.00
2019-05-25T07:02:43.414Z,6332.00
2019-05-25T07:03:43.324Z,6860.00
2019-05-25T07:04:44.093Z,7156.00
2019-05-25T07:05:43.306Z,7016.00
2019-05-25T07:06:43.272Z,7448.00
2019-05-25T07:07:43.260Z,7080.00
2019-05-25T07:08:43.246Z,7164.00
2019-05-25T07:09:43.228Z,6428.00
2019-05-25T07:10:43.248Z,7276.00
2019-05-25T07:11:43.307Z,12048.00
2019-05-25T07:12:43.211Z,18528.00
2019-05-25T07:13:43.229Z,16160.00
2019-05-25T07:14:43.184Z,16960.00
2019-05-25T07:15:43.169Z,19040.00
2019-05-25T07:16:43.158Z,18784.00
2019-05-25T07:17:43.205Z,16480.00
2019-05-25T07:18:43.155Z,19584.00
2019-05-25T07:19:43.129Z,22240.00
2019-05-25T07:20:43.151Z,20416.00
2019-05-25T07:21:43.107Z,20352.00
2019-05-25T07:22:43.120Z,14304.00
2019-05-25T07:23:43.079Z,11956.00
2019-05-25T07:24:43.080Z,12592.00
2019-05-25T07:25:43.111Z,15680.00
2019-05-25T07:26:43.050Z,20064.00
2019-05-25T07:27:58.276Z,27712.00
2019-05-25T07:28:44.039Z,28064.00
2019-05-25T07:29:43.021Z,26176.00
2019-05-25T07:30:46.069Z,24992.00
2019-05-25T07:31:43.011Z,19360.00
2019-05-25T07:32:42.998Z,18528.00
2019-05-25T07:33:42.981Z,13536.00
2019-05-25T07:34:42.995Z,12372.00
2019-05-25T07:35:42.958Z,15040.00
2019-05-25T07:36:42.972Z,19776.00
2019-05-25T07:37:42.933Z,21248.00
2019-05-25T07:38:42.933Z,12476.00
2019-05-25T07:39:42.963Z,7296.00
2019-05-25T07:40:42.926Z,6320.00
2019-05-25T07:41:43.003Z,5900.00
2019-05-25T07:42:42.883Z,5820.00
2019-05-25T07:43:42.881Z,6072.00
2019-05-25T07:44:43.706Z,5068.00
2019-05-25T07:45:42.885Z,4704.00
2019-05-25T07:46:42.874Z,4876.00
2019-05-25T07:47:42.832Z,5556.00
2019-05-25T07:48:42.926Z,5764.00
2019-05-25T07:49:42.805Z,6808.00
2019-05-25T07:50:42.795Z,6620.00
2019-05-25T07:51:42.802Z,5844.00
2019-05-25T07:52:42.798Z,6224.00
2019-05-25T07:53:42.766Z,5852.00
2019-05-25T07:54:42.753Z,6200.00
2019-05-25T07:55:42.756Z,9688.00
2019-05-25T07:56:42.820Z,14944.00
2019-05-25T07:57:42.724Z,15136.00
2019-05-25T07:58:42.730Z,15168.00
2019-05-25T07:59:42.712Z,14176.00
2019-05-25T08:00:42.802Z,9456.00
2019-05-25T08:01:42.745Z,6136.00
2019-05-25T08:02:42.742Z,5444.00
2019-05-25T08:03:42.783Z,5132.00
2019-05-25T08:04:42.675Z,5004.00
2019-05-25T08:05:42.635Z,5172.00
2019-05-25T08:06:42.659Z,4432.00
2019-05-25T08:07:42.679Z,5412.00
2019-05-25T08:08:42.742Z,5256.00
2019-05-25T08:09:42.619Z,5792.00
2019-05-25T08:10:42.608Z,5992.00
2019-05-25T08:11:42.581Z,5788.00
2019-05-25T08:12:42.590Z,5696.00
2019-05-25T08:13:42.827Z,5840.00
2019-05-25T08:14:45.000Z,5716.00
2019-05-25T08:15:42.622Z,5672.00
2019-05-25T08:16:42.535Z,5612.00
2019-05-25T08:17:42.646Z,5344.00
2019-05-25T08:18:42.824Z,5056.00
2019-05-25T08:19:43.366Z,5060.00
2019-05-25T08:20:42.482Z,4936.00
2019-05-25T08:21:42.757Z,4668.00
2019-05-25T08:22:42.534Z,4940.00
2019-05-25T08:23:42.454Z,5072.00
2019-05-25T08:24:42.460Z,5456.00
2019-05-25T08:25:42.446Z,5676.00
2019-05-25T08:26:42.433Z,5824.00
2019-05-25T08:27:42.436Z,5984.00
2019-05-25T08:28:42.438Z,5684.00
2019-05-25T08:29:42.384Z,5660.00
2019-05-25T08:30:42.404Z,5136.00
2019-05-25T08:31:42.367Z,4584.00
2019-05-25T08:32:42.356Z,5416.00
2019-05-25T08:33:42.371Z,4436.00
2019-05-25T08:34:42.850Z,4464.00
2019-05-25T08:35:42.358Z,4716.00
2019-05-25T08:36:42.325Z,4792.00
2019-05-25T08:37:42.361Z,4536.00
2019-05-25T08:38:42.297Z,4464.00
2019-05-25T08:39:42.277Z,5324.00
2019-05-25T08:40:42.303Z,5544.00
2019-05-25T08:41:45.295Z,3948.00
2019-05-25T08:42:42.248Z,3784.00
2019-05-25T08:43:42.242Z,3804.00
2019-05-25T08:44:42.227Z,3728.00
2019-05-25T08:45:42.268Z,4984.00
2019-05-25T08:46:42.226Z,5316.00
2019-05-25T08:47:42.188Z,5384.00
2019-05-25T08:48:42.190Z,5404.00
2019-05-25T08:49:42.167Z,5460.00
2019-05-25T08:50:42.168Z,5360.00
2019-05-25T08:51:42.191Z,5160.00
2019-05-25T08:52:42.140Z,5176.00
2019-05-25T08:53:42.462Z,5072.00
2019-05-25T08:54:42.342Z,4848.00
2019-05-25T08:55:42.119Z,4612.00
2019-05-25T08:56:42.100Z,4656.00
2019-05-25T08:57:42.109Z,5108.00
2019-05-25T08:58:48.479Z,5348.00
2019-05-25T08:59:43.069Z,5348.00
2019-05-25T09:00:42.090Z,5480.00
2019-05-25T09:01:42.080Z,5536.00
2019-05-25T09:02:42.033Z,5548.00
2019-05-25T09:03:42.019Z,5572.00
2019-05-25T09:04:42.040Z,5580.00
2019-05-25T09:05:42.058Z,5476.00
2019-05-25T09:06:42.008Z,5240.00
2019-05-25T09:07:42.025Z,4844.00
2019-05-25T09:08:41.980Z,5040.00
2019-05-25T09:09:42.055Z,5340.00
2019-05-25T09:10:41.975Z,5292.00
2019-05-25T09:11:42.755Z,5524.00
2019-05-25T09:12:42.033Z,5704.00
2019-05-25T09:13:42.015Z,5428.00
2019-05-25T09:14:41.984Z,5264.00
2019-05-25T09:15:41.959Z,5344.00
2019-05-25T09:16:41.920Z,5364.00
2019-05-25T09:17:41.924Z,5380.00
2019-05-25T09:18:41.924Z,5404.00
2019-05-25T09:19:41.904Z,5756.00
2019-05-25T09:20:41.842Z,5728.00
2019-05-25T09:21:41.849Z,5480.00
2019-05-25T09:22:41.825Z,5816.00
2019-05-25T09:23:41.836Z,5680.00
2019-05-25T09:24:41.862Z,5444.00
2019-05-25T09:25:41.798Z,6044.00
2019-05-25T09:26:41.816Z,6088.00
2019-05-25T09:27:41.804Z,5848.00
2019-05-25T09:28:41.826Z,5864.00
2019-05-25T09:29:41.779Z,5904.00
2019-05-25T09:30:41.859Z,6228.00
2019-05-25T09:31:41.925Z,6520.00
2019-05-25T09:32:41.781Z,6832.00
2019-05-25T09:33:41.752Z,10780.00
2019-05-25T09:34:41.774Z,21600.00
2019-05-25T09:35:41.718Z,24288.00
2019-05-25T09:36:41.698Z,24928.00
2019-05-25T09:37:41.695Z,22688.00
2019-05-25T09:38:43.371Z,22496.00
2019-05-25T09:39:41.643Z,21760.00
2019-05-25T09:40:41.919Z,22240.00
2019-05-25T09:41:42.110Z,18208.00
2019-05-25T09:42:41.716Z,14496.00
2019-05-25T09:43:41.629Z,11812.00
2019-05-25T09:44:41.589Z,10000.00
2019-05-25T09:45:41.578Z,11952.00
2019-05-25T09:46:41.600Z,10620.00
2019-05-25T09:47:41.592Z,11200.00
2019-05-25T09:48:41.551Z,8068.00
2019-05-25T09:49:41.542Z,5900.00
2019-05-25T09:50:41.523Z,4844.00
2019-05-25T09:51:41.545Z,4524.00
2019-05-25T09:52:41.513Z,4100.00
2019-05-25T09:53:41.533Z,3532.00
2019-05-25T09:54:41.522Z,3164.00
2019-05-25T09:55:41.561Z,3024.00
2019-05-25T09:56:41.977Z,3288.00
2019-05-25T09:57:42.025Z,3300.00
2019-05-25T09:58:41.490Z,3284.00
2019-05-25T09:59:41.480Z,3308.00
2019-05-25T10:00:41.444Z,3428.00
2019-05-25T10:01:41.473Z,3560.00
2019-05-25T10:02:41.858Z,3568.00
2019-05-25T10:03:41.412Z,3620.00
2019-05-25T10:04:41.375Z,3572.00
2019-05-25T10:05:41.373Z,3660.00
2019-05-25T10:06:41.365Z,3844.00
2019-05-25T10:07:41.376Z,3848.00
2019-05-25T10:08:41.334Z,3712.00
2019-05-25T10:09:41.394Z,3540.00
2019-05-25T10:10:41.397Z,3428.00
2019-05-25T10:11:41.330Z,3364.00
2019-05-25T10:12:41.326Z,3528.00
2019-05-25T10:13:41.318Z,3548.00
2019-05-25T10:14:41.377Z,3420.00
2019-05-25T10:15:41.325Z,3400.00
2019-05-25T10:16:41.295Z,3344.00
2019-05-25T10:17:41.277Z,3332.00
2019-05-25T10:18:41.228Z,3368.00
2019-05-25T10:19:41.329Z,3364.00
2019-05-25T10:20:41.229Z,3284.00
2019-05-25T10:21:41.258Z,3320.00
2019-05-25T10:22:41.262Z,3388.00
2019-05-25T10:23:41.202Z,3420.00
2019-05-25T10:24:41.213Z,3436.00
2019-05-25T10:25:41.168Z,3488.00
2019-05-25T10:26:41.160Z,3500.00
2019-05-25T10:27:41.245Z,3560.00
2019-05-25T10:28:41.176Z,3648.00
2019-05-25T10:29:41.177Z,3736.00
2019-05-25T10:30:41.167Z,3688.00
2019-05-25T10:31:41.109Z,3628.00
2019-05-25T10:32:41.180Z,3616.00
2019-05-25T10:33:41.075Z,3648.00
2019-05-25T10:34:41.081Z,3624.00
2019-05-25T10:35:41.054Z,3668.00
2019-05-25T10:36:41.038Z,3684.00
2019-05-25T10:37:41.032Z,3664.00
2019-05-25T10:38:41.019Z,3616.00
2019-05-25T10:39:41.040Z,3472.00
2019-05-25T10:40:41.022Z,3368.00
2019-05-25T10:41:40.985Z,3332.00
2019-05-25T10:42:40.985Z,3340.00
2019-05-25T10:43:40.983Z,3384.00
2019-05-25T10:44:40.993Z,3396.00
2019-05-25T10:45:40.951Z,3364.00
2019-05-25T10:46:40.933Z,3368.00
2019-05-25T10:47:40.921Z,3484.00
2019-05-25T10:48:40.922Z,3528.00
2019-05-25T10:49:40.974Z,3516.00
2019-05-25T10:50:40.905Z,3516.00
2019-05-25T10:51:40.897Z,3488.00
2019-05-25T10:52:40.884Z,3516.00
2019-05-25T10:53:40.866Z,3600.00
2019-05-25T10:54:40.877Z,3492.00
2019-05-25T10:55:40.859Z,3472.00
2019-05-25T10:56:40.849Z,3612.00
2019-05-25T10:57:40.814Z,4120.00
2019-05-25T10:58:40.813Z,5912.00
2019-05-25T10:59:52.411Z,7164.00
2019-05-25T11:00:41.807Z,5884.00
2019-05-25T11:01:40.779Z,5624.00
2019-05-25T11:02:40.771Z,5860.00
2019-05-25T11:03:40.776Z,6200.00
2019-05-25T11:04:40.826Z,7252.00
2019-05-25T11:05:40.789Z,7664.00
2019-05-25T11:06:40.745Z,4664.00
2019-05-25T11:07:40.715Z,3772.00
2019-05-25T11:08:40.699Z,3600.00
2019-05-25T11:09:40.688Z,3724.00
2019-05-25T11:10:40.700Z,3884.00
2019-05-25T11:11:40.670Z,3944.00
2019-05-25T11:12:41.060Z,4004.00
2019-05-25T11:13:40.648Z,3912.00
2019-05-25T11:14:40.848Z,3844.00
2019-05-25T11:15:40.668Z,3748.00
2019-05-25T11:16:40.621Z,3728.00
2019-05-25T11:17:40.624Z,3664.00
2019-05-25T11:18:41.839Z,3584.00
2019-05-25T11:19:40.610Z,3296.00
2019-05-25T11:20:40.671Z,3320.00
2019-05-25T11:21:40.575Z,3300.00
2019-05-25T11:22:40.699Z,3364.00
2019-05-25T11:23:40.622Z,3220.00
2019-05-25T11:24:40.593Z,3052.00
2019-05-25T11:25:40.532Z,3040.00
2019-05-25T11:26:40.511Z,2960.00
2019-05-25T11:27:40.492Z,2948.00
2019-05-25T11:28:40.513Z,2948.00
2019-05-25T11:29:40.513Z,2892.00
2019-05-25T11:30:40.462Z,2816.00
2019-05-25T11:31:40.452Z,2796.00
2019-05-25T11:32:40.475Z,2728.00
2019-05-25T11:33:40.435Z,2696.00
2019-05-25T11:34:40.455Z,2704.00
2019-05-25T11:35:40.405Z,2600.00
2019-05-25T11:36:40.414Z,2680.00
2019-05-25T11:37:40.413Z,2632.00
2019-05-25T11:38:40.375Z,2464.00
2019-05-25T11:39:40.395Z,2432.00
2019-05-25T11:40:40.427Z,2716.00
2019-05-25T11:41:40.374Z,2808.00
2019-05-25T11:42:40.353Z,2772.00
2019-05-25T11:43:40.334Z,2720.00
2019-05-25T11:44:40.315Z,2440.00
2019-05-25T11:45:40.356Z,2392.00
2019-05-25T11:46:40.296Z,2360.00
2019-05-25T11:47:40.315Z,2296.00
2019-05-25T11:48:40.324Z,2684.00
2019-05-25T11:49:40.274Z,2740.00
2019-05-25T11:50:40.249Z,2672.00
2019-05-25T11:51:40.245Z,2596.00
2019-05-25T11:52:40.517Z,2484.00
2019-05-25T11:53:40.219Z,2456.00
2019-05-25T11:54:40.238Z,2368.00
2019-05-25T11:55:40.228Z,2308.00
2019-05-25T11:56:40.189Z,1960.00
2019-05-25T11:57:40.211Z,1896.00
2019-05-25T11:58:47.583Z,1736.00
2019-05-25T11:59:41.190Z,1632.00
2019-05-25T12:00:40.231Z,1568.00
2019-05-25T12:01:40.180Z,1460.00
2019-05-25T12:02:40.125Z,1368.00
2019-05-25T12:03:40.128Z,1300.00
2019-05-25T12:04:40.104Z,1276.00
2019-05-25T12:05:40.102Z,1260.00
2019-05-25T12:06:40.110Z,1264.00
2019-05-25T12:07:43.863Z,1248.00
2019-05-25T12:08:40.078Z,1236.00
2019-05-25T12:09:40.062Z,1272.00
2019-05-25T12:10:40.072Z,1316.00
2019-05-25T12:11:40.072Z,1432.00
2019-05-25T12:12:40.043Z,1588.00
2019-05-25T12:13:40.042Z,1792.00
2019-05-25T12:14:40.002Z,2036.00
2019-05-25T12:15:39.995Z,2324.00
2019-05-25T12:16:40.005Z,2288.00
2019-05-25T12:17:40.002Z,2272.00
2019-05-25T12:18:39.962Z,2208.00
2019-05-25T12:19:39.947Z,2168.00
2019-05-25T12:20:39.924Z,2100.00
2019-05-25T12:21:39.924Z,2088.00
2019-05-25T12:22:39.976Z,2080.00
2019-05-25T12:23:39.904Z,2080.00
2019-05-25T12:24:39.920Z,2044.00
2019-05-25T12:25:39.917Z,2060.00
2019-05-25T12:26:39.885Z,2084.00